Latest Weather Observations for Tewantin

IDQ60801

Issued at 7:02 am EST Tuesday 24 January 2017 (issued every 30 minutes, with the page automatically refreshed every 10 minutes)

About weather observations | Map of weather stations | Latest weather observations for QLD | Other Formats
Station Details ID: 040908 Name: TEWANTIN RSL PARK Lat: -26.39 Lon: 153.04 Height: 6.4 m
Data from the previous 72 hours. | See also: Recent months at Tewantin
Date/Time
EST
Temp
°C
App
Temp
°C
Dew
Point
°C
Rel
Hum
%
Delta-T
°C
Wind Press
QNH
hPa
Press
MSL
hPa
Rain since
9am
mm
Dir  Spd
km/h
Gust
km/h
Spd
kts
Gust
kts
24/07:00am 25.2 28.2 18.4 66 4.3 CALM 0 6 0 3 1016.7 1016.7 0.0
24/06:30am 23.2 26.1 18.1 73 3.2 CALM 0 0 0 0 1016.5 1016.5 0.0
24/06:00am 21.7 24.7 18.5 82 2.0 CALM 0 0 0 0 1016.3 1016.3 0.0
24/05:30am 22.0 24.3 17.6 76 2.7 SW 2 7 1 4 1016.0 1016.0 0.0
24/05:00am 22.6 24.7 17.3 72 3.3 WSW 2 6 1 3 1015.7 1015.7 0.0
24/04:30am 23.1 25.4 17.8 72 3.3 SW 2 7 1 4 1015.5 1015.5 0.0
24/04:00am 22.9 24.7 17.4 71 3.4 SW 4 9 2 5 1015.5 1015.5 0.0
24/03:30am 23.2 24.6 17.4 70 3.6 NW 6 7 3 4 1015.3 1015.3 0.0
24/03:00am 23.6 26.1 17.3 67 3.9 CALM 0 0 0 0 1015.3 1015.3 0.0
24/02:30am 24.1 25.9 17.4 66 4.2 NW 4 7 2 4 1015.3 1015.3 0.0
24/02:00am 24.9 26.4 16.6 60 5.1 NE 4 7 2 4 1015.4 1015.4 0.0
24/01:30am 25.1 26.7 16.0 57 5.5 E 2 6 1 3 1015.4 1015.4 0.0
24/01:00am 24.9 25.7 15.8 57 5.5 E 6 7 3 4 1015.4 1015.4 0.0
24/12:30am 25.0 25.6 15.3 55 5.8 ENE 6 9 3 5 1015.5 1015.5 0.0
24/12:00am 25.4 25.7 16.0 56 5.7 E 9 15 5 8 1015.9 1015.9 0.0
 
Date/Time
EST
Temp
°C
App
Temp
°C
Dew
Point
°C
Rel
Hum
%
Delta-T
°C
Wind Press
QNH
hPa
Press
MSL
hPa
Rain since
9am
mm
Dir  Spd
km/h
Gust
km/h
Spd
kts
Gust
kts
23/11:30pm 25.0 26.0 17.7 64 4.6 E 9 13 5 7 1016.0 1016.0 0.0
23/11:00pm 24.9 27.1 19.3 71 3.6 NE 6 7 3 4 1016.4 1016.4 0.0
23/10:30pm 25.0 27.2 19.1 70 3.8 NE 6 9 3 5 1016.7 1016.7 0.0
23/10:00pm 25.2 26.8 17.9 64 4.6 ENE 6 9 3 5 1016.9 1016.9 0.0
23/09:30pm 25.5 26.2 16.1 56 5.7 ENE 7 9 4 5 1017.0 1017.0 0.0
23/09:00pm 25.4 27.1 18.1 64 4.6 E 6 7 3 4 1016.9 1016.9 0.0
23/08:30pm 25.5 26.8 17.2 60 5.2 SE 6 9 3 5 1016.5 1016.5 0.0
23/08:00pm 25.5 26.5 17.7 62 4.9 ESE 9 13 5 7 1016.2 1016.2 0.0
23/07:30pm 25.2 26.4 18.2 65 4.4 E 9 11 5 6 1016.0 1016.0 0.0
23/07:00pm 25.4 26.0 17.6 62 4.9 ENE 11 15 6 8 1015.8 1015.8 0.0
23/06:30pm 25.9 26.5 16.7 57 5.7 E 9 15 5 8 1015.5 1015.5 0.0
23/06:00pm 26.0 26.1 17.4 59 5.4 E 13 17 7 9 1015.2 1015.2 0.0
23/05:30pm 26.0 26.9 17.6 60 5.3 ESE 9 15 5 8 1014.9 1014.9 0.0
23/05:00pm 26.3 26.3 17.1 57 5.7 ESE 13 20 7 11 1014.5 1014.5 0.0
23/04:30pm 26.6 26.9 17.9 59 5.5 ESE 13 22 7 12 1014.3 1014.3 0.0
23/04:00pm 26.7 26.7 17.2 56 5.9 ESE 13 20 7 11 1014.2 1014.2 0.0
23/03:30pm 26.9 26.9 17.1 55 6.1 ESE 13 22 7 12 1014.3 1014.3 0.0
23/03:00pm 26.9 26.9 17.1 55 6.1 ESE 13 20 7 11 1014.3 1014.3 0.0
23/02:30pm 26.9 26.4 15.9 51 6.7 E 13 22 7 12 1014.5 1014.5 0.0
23/02:00pm 27.2 26.7 15.9 50 6.9 ENE 13 24 7 13 1014.8 1014.8 0.0
23/01:30pm 27.2 26.4 15.2 47 7.3 E 13 22 7 12 1015.0 1015.0 0.0
23/01:00pm 27.5 26.6 15.8 48 7.2 E 15 24 8 13 1015.3 1015.3 0.0
23/12:30pm 27.2 27.2 16.2 51 6.8 SE 11 17 6 9 1015.7 1015.7 0.0
23/12:00pm 27.2 26.9 16.5 52 6.6 SE 13 20 7 11 1016.0 1016.0 0.0
23/11:30am 27.3 26.3 15.7 49 7.1 E 15 20 8 11 1016.2 1016.2 0.0
23/11:00am 27.0 25.9 14.4 46 7.5 SE 13 20 7 11 1016.5 1016.5 0.0
23/10:30am 27.5 26.7 15.2 47 7.5 ESE 13 22 7 12 1016.6 1016.6 0.0
23/10:00am 27.1 26.9 14.8 47 7.4 ESE 9 15 5 8 1016.7 1016.7 0.0
23/09:30am 26.6 25.8 15.0 49 7.0 ESE 13 20 7 11 1016.9 1016.9 0.0
23/09:00am 26.1 25.0 15.2 51 6.6 ESE 15 26 8 14 1016.7 1016.7 0.0
23/08:30am 25.8 25.7 14.9 51 6.5 SSE 9 17 5 9 1016.5 1016.5 0.0
23/08:00am 25.9 25.3 14.7 50 6.7 SSE 11 19 6 10 1016.4 1016.4 0.0
23/07:30am 26.3 24.6 14.7 48 7.0 SE 17 24 9 13 1016.2 1016.2 0.0
23/07:00am 25.6 24.9 14.4 50 6.7 SSE 11 20 6 11 1016.0 1016.0 0.0
23/06:30am 23.3 23.6 15.9 63 4.5 SSW 9 11 5 6 1015.8 1015.8 0.0
23/06:00am 22.8 23.1 16.1 66 4.1 SSW 9 13 5 7 1015.4 1015.4 0.0
23/05:30am 22.3 22.6 16.1 68 3.7 S 9 13 5 7 1015.1 1015.1 0.0
23/05:00am 21.8 22.6 16.3 71 3.3 SSW 7 11 4 6 1014.9 1014.9 0.0
23/04:30am 21.6 22.2 15.2 67 3.8 SW 6 9 3 5 1014.6 1014.6 0.0
23/04:00am 22.9 23.1 14.7 60 4.8 S 7 9 4 5 1014.4 1014.4 0.0
23/03:30am 23.6 23.5 14.9 58 5.2 SE 9 17 5 9 1014.4 1014.4 0.0
23/03:00am 23.9 23.6 15.4 59 5.1 SE 11 17 6 9 1014.3 1014.3 0.0
23/02:30am 24.0 23.9 16.0 61 4.9 SE 11 17 6 9 1014.4 1014.4 0.0
23/02:00am 24.0 24.0 16.3 62 4.7 ESE 11 17 6 9 1014.6 1014.6 0.0
23/01:30am 24.3 24.5 16.8 63 4.6 ESE 11 19 6 10 1014.9 1014.9 0.0
23/01:00am 24.3 23.9 16.3 61 4.9 ESE 13 20 7 11 1015.0 1015.0 0.0
23/12:30am 24.4 24.2 16.6 61 4.8 ESE 13 19 7 10 1015.2 1015.2 0.0
23/12:00am 24.3 24.1 16.6 62 4.7 ESE 13 22 7 12 1015.3 1015.3 0.0
 
Date/Time
EST
Temp
°C
App
Temp
°C
Dew
Point
°C
Rel
Hum
%
Delta-T
°C
Wind Press
QNH
hPa
Press
MSL
hPa
Rain since
9am
mm
Dir  Spd
km/h
Gust
km/h
Spd
kts
Gust
kts
22/11:30pm 24.5 24.3 16.7 61 4.8 ESE 13 20 7 11 1015.6 1015.6 0.0
22/11:00pm 24.3 24.7 17.3 65 4.3 ESE 11 17 6 9 1015.9 1015.9 0.0
22/10:30pm 24.5 24.3 16.7 61 4.8 ESE 13 22 7 12 1016.0 1016.0 0.0
22/10:00pm 24.4 24.5 17.4 65 4.3 ESE 13 20 7 11 1016.2 1016.2 0.0
22/09:30pm 23.9 24.5 16.7 64 4.4 SSE 9 15 5 8 1016.3 1016.3 0.0
22/09:00pm 24.0 24.6 16.8 64 4.4 SE 9 17 5 9 1016.0 1016.0 0.0
22/08:30pm 24.1 24.8 17.1 65 4.3 SSE 9 15 5 8 1016.0 1016.0 0.0
22/08:00pm 24.6 24.6 17.1 63 4.6 SE 13 19 7 10 1015.8 1015.8 0.0
22/07:30pm 24.7 25.1 18.2 67 4.1 SE 13 19 7 10 1015.6 1015.6 0.0
22/07:00pm 25.0 25.4 18.2 66 4.3 SE 13 22 7 12 1015.5 1015.5 0.0
22/06:30pm 25.1 25.0 17.8 64 4.6 ESE 15 24 8 13 1015.3 1015.3 0.0
22/06:00pm 25.3 25.1 16.7 59 5.3 SE 13 20 7 11 1014.9 1014.9 0.0
22/05:30pm 25.4 24.7 16.3 57 5.6 SE 15 28 8 15 1014.6 1014.6 0.0
22/05:00pm 25.6 25.4 17.5 61 5.1 SE 15 24 8 13 1014.3 1014.3 0.0
22/04:30pm 25.6 24.5 17.3 60 5.2 ESE 19 32 10 17 1014.2 1014.2 0.0
22/04:00pm 25.8 25.3 16.9 58 5.5 SE 15 24 8 13 1014.2 1014.2 0.0
22/03:30pm 25.8 25.0 17.2 59 5.4 SE 17 26 9 14 1014.4 1014.4 0.0
22/03:00pm 26.2 25.0 17.0 57 5.7 ESE 19 30 10 16 1014.5 1014.5 0.0
22/02:30pm 26.1 25.0 17.2 58 5.5 SE 19 32 10 17 1014.8 1014.8 0.0
22/02:00pm 26.4 26.2 17.7 58 5.5 SE 15 24 8 13 1014.8 1014.8 0.0
22/01:30pm 26.3 25.6 17.4 58 5.6 SE 17 28 9 15 1014.9 1014.9 0.0
22/01:00pm 26.0 24.9 17.4 59 5.4 ESE 19 30 10 16 1015.2 1015.2 0.0
22/12:30pm 26.3 25.3 17.6 58 5.5 SE 19 28 10 15 1015.4 1015.4 0.0
22/12:00pm 26.4 25.7 18.3 61 5.1 SE 19 30 10 16 1015.7 1015.7 0.0
22/11:30am 26.4 26.2 18.5 62 5.0 SE 17 32 9 17 1015.8 1015.8 0.0
22/11:00am 26.4 25.8 18.8 63 4.9 SE 20 32 11 17 1015.9 1015.9 0.0
22/10:30am 26.5 26.5 18.9 63 4.9 SE 17 28 9 15 1015.9 1015.9 0.0
22/10:00am 27.3 26.6 18.6 59 5.6 SE 20 30 11 16 1015.9 1015.9 0.0
22/09:30am 26.0 25.2 17.9 61 5.1 SE 19 33 10 18 1015.8 1015.8 0.0
22/09:00am 26.3 26.6 18.7 63 4.8 SE 15 24 8 13 1015.5 1015.5 30.4
22/08:30am 25.8 26.7 19.2 67 4.2 SE 13 28 7 15 1015.3 1015.3 30.4
22/08:00am 25.0 24.7 19.1 70 3.8 SE 19 33 10 18 1015.2 1015.2 30.4
22/07:30am 25.3 26.9 19.2 69 3.9 SE 9 20 5 11 1015.1 1015.1 30.4
22/07:00am 25.2 26.3 18.9 68 4.0 SE 11 17 6 9 1015.1 1015.1 30.4
22/06:30am 25.2 26.0 19.1 69 3.9 SE 13 22 7 12 1014.8 1014.8 30.4
22/06:00am 25.1 25.6 19.2 70 3.8 SE 15 24 8 13 1014.4 1014.4 30.4
22/05:30am 24.7 25.7 19.5 73 3.3 SSE 13 22 7 12 1013.9 1013.9 30.4
22/05:00am 25.1 25.2 19.2 70 3.8 SE 17 28 9 15 1013.3 1013.3 30.4
22/04:30am 25.1 25.9 19.9 73 3.4 SE 15 24 8 13 1012.9 1012.9 30.4
22/04:00am 24.9 25.6 19.7 73 3.4 SE 15 26 8 14 1012.4 1012.4 30.4
22/03:30am 24.9 25.6 19.7 73 3.4 SE 15 20 8 11 1012.2 1012.2 30.4
22/03:00am 24.3 25.6 20.8 81 2.3 SE 15 30 8 16 1012.2 1012.2 30.4
22/02:30am 25.0 26.2 19.8 73 3.4 SE 13 24 7 13 1012.0 1012.0 30.2
22/02:00am 24.9 25.5 19.5 72 3.5 SSE 15 24 8 13 1012.0 1012.0 30.2
22/01:30am 24.9 26.2 20.2 75 3.1 SE 13 24 7 13 1012.4 1012.4 30.2
22/01:00am 24.7 26.2 20.6 78 2.7 SSE 13 19 7 10 1012.5 1012.5 30.2
22/12:30am 24.5 26.4 21.4 83 2.0 ESE 13 24 7 13 1012.8 1012.8 30.2
22/12:00am 24.2 25.4 21.5 85 1.8 ESE 17 26 9 14 1012.8 1012.8 30.2
 
Date/Time
EST
Temp
°C
App
Temp
°C
Dew
Point
°C
Rel
Hum
%
Delta-T
°C
Wind Press
QNH
hPa
Press
MSL
hPa
Rain since
9am
mm
Dir  Spd
km/h
Gust
km/h
Spd
kts
Gust
kts
21/11:30pm 23.6 26.5 22.4 93 0.8 SE 11 19 6 10 1013.2 1013.2 30.2
21/11:00pm 23.4 25.6 23.2 99 0.1 ESE 17 26 9 14 1013.3 1013.3 30.2
21/10:30pm 23.4 26.4 23.4 100 0.0 ESE 13 24 7 13 1013.3 1013.3 30.2
21/10:00pm 23.4 25.9 23.2 99 0.1 SE 15 24 8 13 1013.4 1013.4 30.2
21/09:30pm 23.5 25.8 23.5 100 0.0 ESE 17 24 9 13 1013.0 1013.0 30.0
21/09:00pm 23.6 26.0 23.6 100 0.0 ESE 17 26 9 14 1012.7 1012.7 29.6
21/08:30pm 23.7 26.9 23.7 100 0.0 ESE 13 22 7 12 1012.4 1012.4 23.8
21/08:00pm 23.6 26.4 23.6 100 0.0 ESE 15 24 8 13 1012.1 1012.1 15.6
21/07:30pm 23.8 27.3 23.6 99 0.1 SE 11 20 6 11 1011.5 1011.5 12.6
21/07:00pm 23.6 25.4 23.3 98 0.2 ESE 19 33 10 18 1010.8 1010.8 12.4
21/06:30pm 24.1 26.7 23.9 99 0.1 SE 17 33 9 18 1010.3 1010.3 10.6
21/06:00pm 24.4 27.9 24.2 99 0.1 SE 13 24 7 13 1009.8 1009.8 10.2
21/05:30pm 24.8 28.5 24.6 99 0.1 SE 13 24 7 13 1009.5 1009.5 9.6
21/05:00pm 25.0 28.9 24.8 99 0.1 SSE 13 20 7 11 1009.0 1009.0 7.0
21/04:30pm 26.3 30.1 24.7 91 1.1 ESE 13 22 7 12 1008.3 1008.3 1.0
21/04:00pm 26.7 29.7 24.7 89 1.4 SE 17 33 9 18 1007.8 1007.8 0.8
21/03:30pm 27.1 30.6 25.5 91 1.1 SE 17 32 9 17 1006.8 1006.8 0.8
21/03:00pm 27.6 30.5 23.8 80 2.6 SSE 15 24 8 13 1007.1 1007.1 0.8
21/02:30pm 28.0 31.8 24.0 79 2.8 E 11 13 6 7 1006.2 1006.2 0.8
21/02:00pm 30.6 33.3 22.2 61 5.7 NE 11 20 6 11 1006.1 1006.1 0.0
21/01:30pm 32.6 34.5 22.1 54 7.2 NE 15 20 8 11 1006.1 1006.1 0.0
21/01:00pm 32.9 35.0 21.7 51 7.6 NE 13 20 7 11 1006.2 1006.2 0.0
21/12:30pm 32.8 35.1 22.0 53 7.4 E 13 19 7 10 1006.1 1006.1 0.0
21/12:00pm 36.1 38.3 21.1 41 10.2 WSW 11 17 6 9 1006.0 1006.0 0.0
21/11:30am 36.7 40.2 22.1 43 10.0 SSW 7 17 4 9 1006.0 1006.0 0.0
21/11:00am 36.2 38.8 21.2 41 10.2 W 9 17 5 9 1006.3 1006.3 0.0
21/10:30am 34.3 36.8 20.3 44 9.4 NNW 7 19 4 10 1006.5 1006.5 0.0
21/10:00am 33.1 34.9 20.3 47 8.5 NW 11 17 6 9 1006.9 1006.9 0.0
21/09:30am 32.7 34.3 19.9 46 8.5 WNW 11 20 6 11 1007.1 1007.1 0.0
21/09:00am 31.2 34.0 20.8 54 7.0 NW 7 11 4 6 1007.0 1007.0 0.0
21/08:30am 29.6 31.2 19.9 56 6.4 NNW 11 17 6 9 1007.0 1007.0 0.0
21/08:00am 28.7 30.8 20.2 60 5.6 NNW 9 17 5 9 1006.9 1006.9 0.0
21/07:30am 28.1 28.9 19.1 58 5.8 NNW 13 19 7 10 1006.9 1006.9 0.0

Other Formats:

Comma delimited format used in spreadsheet applications
http://www.bom.gov.au/fwo/IDQ60801/IDQ60801.94570.axf

JavaScript Object Notation format (JSON) in row-major order
http://www.bom.gov.au/fwo/IDQ60801/IDQ60801.94570.json